Aérodrome :
LOGIN :

S'inscrire | Disclaimer

   EN    FR    IT 

 










Légende :    VFR   VFR Marginal   IFR   IFR Intensif   IFR Très Intensif
Visi : 
Plafond : 
>= 8 km
>= 3000ft
5 à 8 km
1000 à 3000 ft
1500m à 5 km
500 à 1000 ft
800 à 1500m
200 à 500 ft
< 800m
< 200 ft
Symboles :   Orages  Brouillard  Fortes neiges  Fortes précipitations  Vent > 20 kt
SIGMETs :   Divers  Orages  Givrage  Turbulence  Onde Orograph.  Cendres Volcan.






- Altitude de l'aérodrome : 177 ft
- Code IATA : BRI


LIBD - Palese Macchie Bari

DERNIER METAR :
  • 220920Z 34009KT 300V020 9000 NSC 31/19 Q1010

METARs EXPIRÉS :
  • 220850Z 35006KT 300V040 9000 NSC 32/18 Q1010
  • 220820Z 02007KT 350V050 9000 NSC 32/18 Q1010
  • 220750Z 29005KT 240V340 CAVOK 35/15 Q1010
  • 220720Z 29004KT 240V340 CAVOK 33/17 Q1010
  • 220650Z VRB02KT CAVOK 32/17 Q1010
  • 220620Z VRB01KT CAVOK 30/17 Q1010
  • 220550Z VRB02KT CAVOK 28/17 Q1010
  • 220520Z 20003KT 140V250 CAVOK 27/16 Q1010

TAF TAF LIBD
Valide du 22 à 06h jusqu'au 23 à 06h UTC


220500Z 2206/2306 VRB05KT CAVOK
BECMG 2206/2208 01012KT



MET'MAP, la Météo Aéronautique d'un coup d'oeil ! - Copyright ORBIFLY Décembre 2007 - Disclaimer

ORBIFLY MET'MAP TEAM :

Programmation & Développement : Alexandra Zaïnal
Sur une idée originale de : Baudouin d'Aumeries
Soutien technique & logistique : Manuel Goepfert
Assistance : Marc-Olivier Méhu




SOURCES & CREDITS :

   NOAA